createdAt,value
2023-05-09T00:01:08.948Z,15.7
2023-05-09T00:07:01.850Z,15.9
2023-05-09T00:12:53.865Z,15.8
2023-05-09T00:18:46.449Z,15.7
2023-05-09T00:24:38.731Z,15.6
2023-05-09T00:30:34.296Z,15.7
2023-05-09T00:36:27.172Z,15.6
2023-05-09T00:42:18.417Z,15.7
2023-05-09T00:48:11.880Z,15.6
2023-05-09T00:54:03.855Z,15.8
2023-05-09T00:59:58.564Z,15.6
2023-05-09T01:05:51.390Z,15.6
2023-05-09T01:11:43.252Z,15.6
2023-05-09T01:17:35.341Z,15.5
2023-05-09T01:23:28.748Z,15.5
2023-05-09T01:29:20.733Z,15.6
2023-05-09T01:35:14.632Z,15.8
2023-05-09T01:41:07.874Z,15.7
2023-05-09T01:46:59.085Z,15.6
2023-05-09T01:52:57.741Z,15.6
2023-05-09T01:58:49.366Z,15.6
2023-05-09T02:04:40.884Z,15.7
2023-05-09T02:10:32.997Z,15.8
2023-05-09T02:16:27.504Z,15.6
2023-05-09T02:22:19.453Z,15.7
2023-05-09T02:28:11.246Z,15.8
2023-05-09T02:34:04.775Z,15.8
2023-05-09T02:40:02.103Z,15.7
2023-05-09T02:45:59.181Z,15.7
2023-05-09T02:51:51.920Z,15.7
2023-05-09T02:57:44.919Z,15.6
2023-05-09T03:03:58.244Z,15.8
2023-05-09T03:09:50.967Z,15.7
2023-05-09T03:15:45.957Z,15.7
2023-05-09T03:21:38.508Z,15.7
2023-05-09T03:27:30.234Z,15.6
2023-05-09T03:33:23.528Z,15.8
2023-05-09T03:39:16.136Z,15.7
2023-05-09T03:45:08.821Z,15.8
2023-05-09T03:51:03.033Z,15.7
2023-05-09T03:56:54.612Z,15.8
2023-05-09T04:02:46.707Z,15.8
2023-05-09T04:08:40.190Z,15.7
2023-05-09T04:14:39.499Z,15.7
2023-05-09T04:20:34.206Z,15.6
2023-05-09T04:26:28.902Z,15.7
2023-05-09T04:32:20.941Z,15.7
2023-05-09T04:38:13.439Z,15.7
2023-05-09T04:44:05.707Z,15.8
2023-05-09T04:50:01.276Z,15.8
2023-05-09T04:55:55.009Z,15.7
2023-05-09T05:01:44.972Z,15.7
2023-05-09T05:07:37.094Z,15.9
2023-05-09T05:13:28.417Z,15.8
2023-05-09T05:19:20.425Z,15.8
2023-05-09T05:25:13.556Z,15.9
2023-05-09T05:31:04.987Z,16
2023-05-09T05:36:57.170Z,15.9
2023-05-09T05:42:50.656Z,16.1
2023-05-09T05:48:42.873Z,16.1
2023-05-09T05:54:34.376Z,16.1
2023-05-09T06:00:25.542Z,16.3
2023-05-09T06:06:17.505Z,16.4
2023-05-09T06:12:08.687Z,16.4
2023-05-09T06:18:00.780Z,16.8
2023-05-09T06:30:26.587Z,17.2
2023-05-09T06:36:18.289Z,17.3
2023-05-09T06:42:08.849Z,17.1
2023-05-09T06:48:01.458Z,17.1
2023-05-09T06:53:53.908Z,17.3
2023-05-09T06:59:46.232Z,17.4
2023-05-09T07:05:38.879Z,17.4
2023-05-09T07:11:33.059Z,17.7
2023-05-09T07:17:26.002Z,18.2
2023-05-09T07:23:17.507Z,18.2
2023-05-09T07:29:08.199Z,18.6
2023-05-09T07:34:59.867Z,18.3
2023-05-09T07:40:51.853Z,18.7
2023-05-09T07:46:44.430Z,18.8
2023-05-09T07:52:38.851Z,18.8
2023-05-09T07:58:31.543Z,19.1
2023-05-09T08:04:24.111Z,19.1
2023-05-09T08:10:16.095Z,19.2
2023-05-09T08:16:08.326Z,19.4
2023-05-09T08:22:05.747Z,19.4
2023-05-09T08:27:58.404Z,19.3
2023-05-09T08:33:50.540Z,19.6
2023-05-09T08:39:42.796Z,19.9
2023-05-09T08:45:35.288Z,20.2
2023-05-09T08:51:28.526Z,20.2
2023-05-09T08:57:23.000Z,20.1
2023-05-09T09:03:15.290Z,20.2
2023-05-09T09:09:07.420Z,20.3
2023-05-09T09:14:59.162Z,20.4
2023-05-09T09:20:54.227Z,20.3
2023-05-09T09:26:47.086Z,20.5
2023-05-09T09:32:39.138Z,20.6
2023-05-09T09:39:40.860Z,20.8
2023-05-09T09:45:31.813Z,21
2023-05-09T09:51:25.358Z,20.9
2023-05-09T09:57:16.430Z,20.6
2023-05-09T10:03:08.621Z,21
2023-05-09T10:09:01.673Z,21.2
2023-05-09T10:14:53.563Z,21.5
2023-05-09T10:20:45.982Z,21.5
2023-05-09T10:26:38.024Z,21.6
2023-05-09T10:32:30.327Z,21.7
2023-05-09T10:38:22.497Z,21.7
2023-05-09T10:44:15.804Z,21.9
2023-05-09T10:50:08.006Z,22.2
2023-05-09T10:55:59.460Z,22.1
2023-05-09T11:01:51.734Z,21.9
2023-05-09T11:07:45.871Z,22.1
2023-05-09T11:13:38.281Z,22.3
2023-05-09T11:19:30.968Z,22.5
2023-05-09T11:25:22.610Z,22.3
2023-05-09T11:31:15.360Z,22.1
2023-05-09T11:37:08.354Z,22.2
2023-05-09T11:43:01.682Z,22.4
2023-05-09T11:50:42.079Z,22.2
2023-05-09T12:05:14.628Z,22.7
2023-05-09T12:11:07.595Z,22.7
2023-05-09T12:16:59.675Z,22.5
2023-05-09T12:22:51.444Z,22.6
2023-05-09T12:47:49.313Z,22.9
2023-05-09T12:53:40.795Z,22.4
2023-05-09T12:59:36.532Z,23
2023-05-09T13:05:29.656Z,23
2023-05-09T13:11:21.707Z,22.9
2023-05-09T13:17:16.039Z,23
2023-05-09T13:23:08.078Z,22.9
2023-05-09T13:29:00.515Z,22.8
2023-05-09T13:34:52.875Z,22.9
2023-05-09T13:40:45.881Z,22.9
2023-05-09T13:46:40.941Z,22.9
2023-05-09T13:52:33.929Z,22.7
2023-05-09T13:58:25.779Z,22.8
2023-05-09T14:04:18.580Z,22.7
2023-05-09T14:10:11.719Z,22.6
2023-05-09T14:16:05.831Z,22.5
2023-05-09T14:21:57.952Z,22.5
2023-05-09T14:27:51.357Z,22.3
2023-05-09T14:33:43.981Z,22.4
2023-05-09T14:39:38.337Z,22.3
2023-05-09T14:45:30.193Z,22.1
2023-05-09T14:51:22.603Z,21.8
2023-05-09T14:57:16.403Z,21.4
2023-05-09T15:03:07.632Z,21.1
2023-05-09T15:09:00.944Z,20.6
2023-05-09T15:14:52.511Z,20
2023-05-09T15:20:43.711Z,19.8
2023-05-09T15:26:35.984Z,19.8
2023-05-09T15:32:28.624Z,19.5
2023-05-09T15:38:20.494Z,19.6
2023-05-09T15:44:13.185Z,19.6
2023-05-09T15:50:04.673Z,18.5
2023-05-09T15:55:57.535Z,18.4
2023-05-09T16:01:51.977Z,18.2
2023-05-09T16:07:45.944Z,18.4
2023-05-09T16:13:37.766Z,18
2023-05-09T16:19:30.163Z,17.9
2023-05-09T16:25:25.409Z,17.9
2023-05-09T16:31:20.945Z,17.9
2023-05-09T16:37:13.096Z,18
2023-05-09T16:43:04.444Z,17.8
2023-05-09T16:48:56.490Z,18.1
2023-05-09T16:54:48.916Z,18.3
2023-05-09T17:00:41.508Z,17.7
2023-05-09T17:06:35.221Z,17.5
2023-05-09T17:12:27.714Z,17.5
2023-05-09T17:18:29.615Z,17.6
2023-05-09T17:24:28.591Z,17.5
2023-05-09T17:30:23.263Z,17.4
2023-05-09T17:36:26.798Z,17.9
2023-05-09T17:42:19.770Z,17.8
2023-05-09T17:48:12.209Z,17.5
2023-05-09T17:54:08.865Z,17.7
2023-05-09T18:00:00.192Z,17.8
2023-05-09T18:05:51.918Z,17.5
2023-05-09T18:11:46.925Z,17.6
2023-05-09T18:23:50.467Z,17.5
2023-05-09T18:29:43.559Z,17.6
2023-05-09T18:35:36.558Z,17.6
2023-05-09T18:41:28.386Z,17.7
2023-05-09T18:47:21.243Z,17.6
2023-05-09T18:53:14.398Z,17.6
2023-05-09T18:59:07.216Z,17.6
2023-05-09T19:04:58.905Z,17.6
2023-05-09T19:10:53.993Z,17.5
2023-05-09T19:16:50.991Z,17.6
2023-05-09T19:22:43.350Z,17.5
2023-05-09T19:28:35.558Z,17.4
2023-05-09T19:35:37.401Z,17.2
2023-05-09T19:43:50.698Z,17.1
2023-05-09T19:49:40.988Z,17
2023-05-09T19:55:36.589Z,16.8
2023-05-09T20:01:28.607Z,16.8
2023-05-09T20:07:21.767Z,16.6
2023-05-09T20:13:17.778Z,16.6
2023-05-09T20:19:11.958Z,16.5
2023-05-09T20:27:27.091Z,16.3
2023-05-09T20:33:17.778Z,16.3
2023-05-09T20:39:12.342Z,16
2023-05-09T20:45:14.689Z,15.9
2023-05-09T20:51:04.928Z,15.8
2023-05-09T20:56:58.946Z,15.6
2023-05-09T21:02:49.600Z,15.6
2023-05-09T21:08:44.829Z,15.5
2023-05-09T21:14:35.887Z,15.4
2023-05-09T21:20:27.274Z,15.4
2023-05-09T21:26:20.705Z,15.3
2023-05-09T21:32:12.502Z,15.2
2023-05-09T21:38:05.326Z,15.2
2023-05-09T21:43:56.357Z,15.1
2023-05-09T21:49:48.457Z,15.1
2023-05-09T21:55:45.681Z,15
2023-05-09T22:01:36.677Z,15.2
2023-05-09T22:07:33.091Z,14.8
2023-05-09T22:13:23.656Z,15
2023-05-09T22:19:16.396Z,15.3
2023-05-09T22:25:08.760Z,15
2023-05-09T22:31:01.176Z,15.1
2023-05-09T22:36:51.473Z,15.2
2023-05-09T22:42:48.218Z,15.1
2023-05-09T22:48:39.889Z,15
2023-05-09T22:54:34.279Z,15.1
2023-05-09T23:00:27.592Z,15.2
2023-05-09T23:06:20.029Z,15
2023-05-09T23:12:12.042Z,15
2023-05-09T23:18:04.077Z,15.1
2023-05-09T23:23:56.189Z,14.9
2023-05-09T23:29:48.780Z,14.9
2023-05-09T23:35:40.740Z,14.9
2023-05-09T23:41:33.187Z,14.9
2023-05-09T23:47:25.714Z,14.9
2023-05-09T23:53:18.110Z,14.9
2023-05-09T23:59:10.213Z,14.9
